Time;durP1;ratioP1;P1;durP2;ratioP2;P2;SDS_P1;SDS_P2;PMS_P1;PMS_P2;Temp;Humidity;BMP_temperature;BMP_pressure;BME280_temperature;BME280_humidity;BME280_pressure;Samples;Min_cycle;Max_cycle;Signal;HPM_P1;HPM_P2
2024/03/15 00:01:51;;;;;;;17.30;12.30;;;;;;;1.50;100.00;96612.50;108373;1277;22528;-73
2024/03/15 00:04:21;;;;;;;18.80;12.00;;;;;;;1.48;100.00;96608.36;108426;1271;25292;-73
2024/03/15 00:06:52;;;;;;;19.10;12.60;;;;;;;1.47;100.00;96610.06;108469;1277;22560;-73
2024/03/15 00:09:22;;;;;;;19.50;12.60;;;;;;;1.48;100.00;96606.07;108423;1273;22583;-73
2024/03/15 00:11:53;;;;;;;20.10;13.70;;;;;;;1.50;100.00;96598.68;108419;1277;25243;-73
2024/03/15 00:14:24;;;;;;;18.20;12.30;;;;;;;1.52;100.00;96591.01;108403;1276;22560;-73
2024/03/15 00:16:56;;;;;;;17.40;11.50;;;;;;;1.56;100.00;96592.91;108436;1277;22565;-73
2024/03/15 00:19:26;;;;;;;14.60;9.70;;;;;;;1.51;100.00;96589.89;108410;1276;23165;-73
2024/03/15 00:21:58;;;;;;;18.10;11.40;;;;;;;1.41;100.00;96582.05;108458;1276;22547;-73
2024/03/15 00:24:28;;;;;;;19.00;11.70;;;;;;;1.35;100.00;96584.81;108421;1276;22538;-73
2024/03/15 00:27:00;;;;;;;18.30;10.80;;;;;;;1.32;100.00;96579.83;108417;1269;22535;-73
2024/03/15 00:29:31;;;;;;;18.60;11.80;;;;;;;1.29;100.00;96584.25;108455;1273;22525;-73
2024/03/15 00:32:05;;;;;;;17.90;12.40;;;;;;;1.35;100.00;96578.05;108423;1277;22641;-73
2024/03/15 00:34:36;;;;;;;14.50;10.30;;;;;;;1.42;100.00;96575.25;108435;1277;24420;-73
2024/03/15 00:37:08;;;;;;;19.40;12.40;;;;;;;1.49;100.00;96575.84;108427;1277;23093;-73
2024/03/15 00:39:38;;;;;;;17.80;12.50;;;;;;;1.54;100.00;96571.86;108386;1277;22526;-73
2024/03/15 00:42:09;;;;;;;16.70;11.90;;;;;;;1.54;100.00;96570.57;108416;1277;22528;-73
2024/03/15 00:44:41;;;;;;;15.70;10.60;;;;;;;1.55;100.00;96571.17;108404;1253;22654;-73
2024/03/15 00:47:12;;;;;;;16.90;12.10;;;;;;;1.53;100.00;96561.58;108434;1271;22516;-73
2024/03/15 00:49:44;;;;;;;17.70;10.60;;;;;;;1.48;100.00;96562.91;108431;1277;22526;-73
2024/03/15 00:52:17;;;;;;;16.70;10.50;;;;;;;1.45;100.00;96565.88;108376;1276;22530;-73
2024/03/15 00:54:56;;;;;;;17.40;12.00;;;;;;;1.42;100.00;96565.52;108438;1276;22521;-73
2024/03/15 00:57:26;;;;;;;18.00;11.60;;;;;;;1.40;100.00;96564.21;108457;1277;22539;-72
2024/03/15 00:59:56;;;;;;;16.10;10.80;;;;;;;1.41;100.00;96562.00;108411;1276;22526;-73
2024/03/15 01:02:27;;;;;;;15.50;9.60;;;;;;;1.44;100.00;96562.96;108355;1276;23356;-73
2024/03/15 01:04:57;;;;;;;18.70;12.30;;;;;;;1.37;100.00;96559.02;108449;1276;26462;-73
2024/03/15 01:07:29;;;;;;;18.10;12.10;;;;;;;1.26;100.00;96562.31;108424;1277;22523;-73
2024/03/15 01:09:59;;;;;;;22.20;12.90;;;;;;;1.19;100.00;96558.58;108401;1277;22522;-72
2024/03/15 01:12:29;;;;;;;19.40;12.20;;;;;;;1.16;100.00;96558.05;108325;1272;25434;-73
2024/03/15 01:15:00;;;;;;;20.60;11.80;;;;;;;1.24;100.00;96556.05;108413;1277;25298;-72
2024/03/15 01:17:30;;;;;;;20.60;13.20;;;;;;;1.29;100.00;96555.62;108401;1272;22573;-73
2024/03/15 01:20:05;;;;;;;20.40;12.90;;;;;;;1.33;100.00;96557.08;108465;1272;22525;-73
2024/03/15 01:22:35;;;;;;;19.00;13.00;;;;;;;1.28;100.00;96556.21;108378;1276;22531;-73
2024/03/15 01:25:07;;;;;;;21.00;12.70;;;;;;;1.18;100.00;96555.41;108420;1277;22567;-72
2024/03/15 01:27:37;;;;;;;17.40;11.20;;;;;;;1.07;100.00;96555.14;108398;1277;22942;-73
2024/03/15 01:30:10;;;;;;;19.10;12.30;;;;;;;1.04;100.00;96555.30;108420;1276;22562;-73
2024/03/15 01:32:41;;;;;;;18.00;12.30;;;;;;;1.05;100.00;96550.27;108392;1277;22525;-73
2024/03/15 01:35:11;;;;;;;16.80;11.30;;;;;;;1.05;100.00;96551.92;108441;1276;25374;-73
2024/03/15 01:37:41;;;;;;;19.20;12.80;;;;;;;1.05;100.00;96553.77;108434;1276;22651;-72
2024/03/15 01:40:15;;;;;;;20.20;13.00;;;;;;;1.04;100.00;96554.57;108423;1272;25382;-72
2024/03/15 01:42:46;;;;;;;20.80;13.80;;;;;;;1.08;100.00;96554.88;108497;1276;22529;-73
2024/03/15 01:45:16;;;;;;;18.00;11.80;;;;;;;1.07;100.00;96557.88;108436;1277;22542;-72
2024/03/15 01:47:47;;;;;;;17.20;11.50;;;;;;;1.08;100.00;96553.84;108416;1277;22521;-73
2024/03/15 01:50:22;;;;;;;17.50;10.00;;;;;;;1.14;100.00;96556.30;108427;1277;24401;-73
2024/03/15 01:52:55;;;;;;;17.30;11.40;;;;;;;1.21;100.00;96553.45;108352;1272;22522;-72
2024/03/15 01:55:27;;;;;;;16.50;11.30;;;;;;;1.22;100.00;96554.48;108441;1272;22533;-73
2024/03/15 01:57:58;;;;;;;14.80;10.40;;;;;;;1.24;100.00;96553.69;108457;1277;24403;-72
2024/03/15 02:00:30;;;;;;;15.30;10.40;;;;;;;1.28;100.00;96554.37;108421;1275;22552;-72
2024/03/15 02:03:00;;;;;;;16.50;10.20;;;;;;;1.29;100.00;96556.77;108495;1274;22559;-72
2024/03/15 02:05:32;;;;;;;16.30;10.90;;;;;;;1.20;100.00;96558.08;108562;1270;22657;-72
2024/03/15 02:08:08;;;;;;;16.70;11.30;;;;;;;1.03;100.00;96559.56;108555;1277;22557;-72
2024/03/15 02:10:38;;;;;;;17.60;11.40;;;;;;;0.90;100.00;96559.88;108498;1269;22530;-73
2024/03/15 02:13:13;;;;;;;15.70;10.20;;;;;;;0.87;100.00;96561.41;108443;1277;22556;-72
2024/03/15 02:15:46;;;;;;;15.30;10.60;;;;;;;0.82;100.00;96558.39;108535;1270;22522;-73
2024/03/15 02:18:18;;;;;;;15.20;10.30;;;;;;;0.76;100.00;96561.81;108534;1270;23956;-73
2024/03/15 02:20:51;;;;;;;17.00;10.80;;;;;;;0.71;100.00;96562.86;108450;1277;22538;-73
2024/03/15 02:23:22;;;;;;;16.40;10.60;;;;;;;0.70;100.00;96561.89;108537;1277;22541;-73
2024/03/15 02:25:53;;;;;;;14.30;9.70;;;;;;;0.69;100.00;96564.42;108585;1277;22548;-73
2024/03/15 02:28:23;;;;;;;14.90;9.70;;;;;;;0.68;100.00;96565.41;108568;1276;22530;-72
2024/03/15 02:30:53;;;;;;;17.70;11.50;;;;;;;0.67;100.00;96561.44;108537;1276;25862;-72
2024/03/15 02:33:23;;;;;;;15.80;10.70;;;;;;;0.67;100.00;96566.45;108563;1277;25231;-73
2024/03/15 02:35:54;;;;;;;15.40;11.50;;;;;;;0.68;100.00;96566.05;108532;1276;22546;-73
2024/03/15 02:38:26;;;;;;;16.40;10.70;;;;;;;0.70;100.00;96564.70;108530;1277;22520;-72
2024/03/15 02:41:04;;;;;;;15.70;10.90;;;;;;;0.70;100.00;96564.38;108530;1270;22534;-72
2024/03/15 02:43:34;;;;;;;13.60;9.10;;;;;;;0.68;100.00;96564.64;108515;1273;22528;-73
2024/03/15 02:46:05;;;;;;;16.40;10.00;;;;;;;0.69;100.00;96560.14;108395;1277;26414;-73
2024/03/15 02:48:39;;;;;;;17.30;10.80;;;;;;;0.73;100.00;96564.85;108484;1277;22470;-73
2024/03/15 02:51:10;;;;;;;16.10;11.20;;;;;;;0.74;100.00;96559.83;108440;1277;22519;-73
2024/03/15 02:53:41;;;;;;;13.60;9.20;;;;;;;0.69;100.00;96563.07;108391;1276;22523;-73
2024/03/15 02:56:11;;;;;;;13.80;9.40;;;;;;;0.69;100.00;96562.95;108493;1269;22629;-72
2024/03/15 02:58:46;;;;;;;13.00;8.90;;;;;;;0.68;100.00;96562.15;108541;1269;22521;-73
2024/03/15 03:01:16;;;;;;;13.20;9.10;;;;;;;0.66;100.00;96560.62;108565;1269;22632;-72
2024/03/15 03:03:47;;;;;;;15.00;9.60;;;;;;;0.64;100.00;96564.01;108535;1273;22647;-73
2024/03/15 03:06:17;;;;;;;11.70;8.10;;;;;;;0.64;100.00;96559.80;108592;1275;22539;-73
2024/03/15 03:08:50;;;;;;;12.30;8.30;;;;;;;0.64;100.00;96556.23;108553;1276;25302;-72
2024/03/15 03:11:23;;;;;;;11.90;8.50;;;;;;;0.60;100.00;96557.23;108766;1273;22523;-73
2024/03/15 03:13:57;;;;;;;14.30;9.60;;;;;;;0.48;100.00;96559.48;108774;1273;22541;-73
2024/03/15 03:16:28;;;;;;;18.70;11.10;;;;;;;0.38;100.00;96557.91;108765;1266;22530;-73
2024/03/15 03:18:58;;;;;;;14.20;10.30;;;;;;;0.30;100.00;96559.52;108769;1266;23176;-72
2024/03/15 03:21:29;;;;;;;16.10;10.20;;;;;;;0.31;100.00;96556.95;108772;1273;24457;-73
2024/03/15 03:24:00;;;;;;;17.00;11.40;;;;;;;0.35;100.00;96553.81;108733;1266;22525;-72
2024/03/15 03:26:31;;;;;;;17.20;10.40;;;;;;;0.42;100.00;96554.30;108771;1273;22525;-73
2024/03/15 03:29:01;;;;;;;15.30;9.90;;;;;;;0.45;100.00;96550.68;108767;1266;22555;-73
2024/03/15 03:31:31;;;;;;;15.90;11.40;;;;;;;0.48;100.00;96551.36;108783;1273;22538;-73
2024/03/15 03:34:03;;;;;;;19.00;11.60;;;;;;;0.55;100.00;96556.51;108704;1271;22519;-73
2024/03/15 03:36:36;;;;;;;16.00;10.30;;;;;;;0.59;100.00;96555.64;108695;1273;22546;-72
2024/03/15 03:39:08;;;;;;;13.70;9.40;;;;;;;0.65;100.00;96553.13;108668;1273;23822;-73
2024/03/15 03:41:39;;;;;;;13.70;9.20;;;;;;;0.69;100.00;96549.54;108652;1273;22559;-73
2024/03/15 03:44:10;;;;;;;15.10;9.70;;;;;;;0.72;100.00;96552.17;108673;1273;22605;-73
2024/03/15 03:46:41;;;;;;;16.00;10.60;;;;;;;0.75;100.00;96549.73;108722;1273;22552;-73
2024/03/15 03:49:14;;;;;;;14.40;9.50;;;;;;;0.76;100.00;96548.87;108700;1270;25292;-72
2024/03/15 03:51:47;;;;;;;14.60;10.00;;;;;;;0.75;100.00;96550.13;108658;1273;22532;-73
2024/03/15 03:54:19;;;;;;;13.10;9.30;;;;;;;0.71;100.00;96553.70;108668;1269;22548;-73
2024/03/15 03:56:49;;;;;;;11.10;7.90;;;;;;;0.67;100.00;96550.42;108709;1273;22519;-73
2024/03/15 03:59:20;;;;;;;16.20;9.80;;;;;;;0.65;100.00;96554.24;108670;1273;23638;-73
2024/03/15 04:01:51;;;;;;;16.20;10.80;;;;;;;0.66;100.00;96557.61;108692;1273;22587;-72
2024/03/15 04:04:21;;;;;;;17.60;11.50;;;;;;;0.69;100.00;96552.35;108713;1274;25727;-72
2024/03/15 04:06:52;;;;;;;21.30;13.20;;;;;;;0.86;100.00;96554.38;108717;1274;22556;-73
2024/03/15 04:09:22;;;;;;;18.00;11.20;;;;;;;1.04;100.00;96554.98;108681;1274;22529;-72
2024/03/15 04:11:52;;;;;;;17.10;11.60;;;;;;;1.12;100.00;96554.64;108641;1274;22664;-73
2024/03/15 04:14:23;;;;;;;18.00;10.80;;;;;;;1.15;100.00;96560.12;108672;1273;22788;-72
2024/03/15 04:16:54;;;;;;;17.10;11.70;;;;;;;1.16;100.00;96559.58;108660;1272;22530;-73
2024/03/15 04:19:25;;;;;;;17.00;11.10;;;;;;;1.21;100.00;96554.57;108708;1269;22531;-73
2024/03/15 04:21:58;;;;;;;17.10;10.10;;;;;;;1.28;100.00;96553.77;108686;1273;22523;-73
2024/03/15 04:24:29;;;;;;;19.30;11.10;;;;;;;1.32;100.00;96552.50;108648;1270;23312;-73
2024/03/15 04:27:00;;;;;;;14.20;9.50;;;;;;;1.33;100.00;96554.27;108721;1273;22526;-73
2024/03/15 04:29:31;;;;;;;16.50;10.60;;;;;;;1.33;100.00;96554.83;108662;1272;22519;-73
2024/03/15 04:32:02;;;;;;;17.10;10.90;;;;;;;1.34;100.00;96557.62;108656;1273;24276;-73
2024/03/15 04:34:34;;;;;;;18.70;10.80;;;;;;;1.49;100.00;96556.45;108648;1273;22607;-72
2024/03/15 04:37:05;;;;;;;20.10;11.70;;;;;;;1.63;100.00;96560.89;108696;1273;22541;-72
2024/03/15 04:39:35;;;;;;;20.10;12.30;;;;;;;1.72;100.00;96558.27;108628;1271;22535;-72
2024/03/15 04:42:06;;;;;;;17.30;10.50;;;;;;;1.81;100.00;96558.98;108628;1271;22529;-73
2024/03/15 04:44:37;;;;;;;18.60;11.50;;;;;;;1.83;100.00;96556.23;108649;1270;22573;-73
2024/03/15 04:47:12;;;;;;;19.90;12.10;;;;;;;1.85;100.00;96555.33;108661;1273;24242;-73
2024/03/15 04:49:43;;;;;;;18.00;10.40;;;;;;;1.85;100.00;96553.27;108631;1273;22519;-73
2024/03/15 04:52:18;;;;;;;18.10;11.10;;;;;;;1.87;100.00;96557.63;108662;1272;22551;-73
2024/03/15 04:54:49;;;;;;;18.90;11.60;;;;;;;1.90;100.00;96556.92;108674;1269;24245;-72
2024/03/15 04:57:25;;;;;;;22.20;12.70;;;;;;;1.92;100.00;96556.23;108661;1273;22582;-73
2024/03/15 04:59:55;;;;;;;18.80;11.70;;;;;;;1.92;100.00;96555.20;108651;1250;23007;-73
2024/03/15 05:02:26;;;;;;;20.40;12.40;;;;;;;1.93;100.00;96552.80;108602;1273;23053;-73
2024/03/15 05:04:56;;;;;;;17.20;11.50;;;;;;;1.94;100.00;96551.63;108668;1273;22534;-73
2024/03/15 05:07:26;;;;;;;16.10;11.20;;;;;;;2.04;100.00;96550.78;108687;1270;26494;-73
2024/03/15 05:09:57;;;;;;;16.70;10.70;;;;;;;2.25;100.00;96553.71;108675;1273;22534;-73
2024/03/15 05:12:27;;;;;;;19.40;12.60;;;;;;;2.48;100.00;96553.89;108640;1273;22529;-73
2024/03/15 05:14:57;;;;;;;16.40;11.10;;;;;;;2.75;100.00;96552.84;108677;1273;25413;-73
2024/03/15 05:17:27;;;;;;;18.00;12.30;;;;;;;3.03;100.00;96554.67;108701;1270;22542;-73
2024/03/15 05:19:58;;;;;;;14.40;10.60;;;;;;;3.29;100.00;96558.33;108651;1273;25260;-73
2024/03/15 05:22:28;;;;;;;15.30;10.50;;;;;;;3.52;100.00;96558.08;108676;1270;22530;-73
2024/03/15 05:25:00;;;;;;;16.70;11.60;;;;;;;3.72;100.00;96555.71;108681;1266;24131;-73
2024/03/15 05:27:32;;;;;;;19.10;12.20;;;;;;;3.86;100.00;96556.48;108691;1269;22526;-73
2024/03/15 05:30:05;;;;;;;16.90;12.60;;;;;;;4.09;100.00;96557.29;108714;1266;22526;-73
2024/03/15 05:32:36;;;;;;;17.90;11.30;;;;;;;4.36;100.00;96559.59;108665;1267;25386;-73
2024/03/15 05:35:08;;;;;;;17.20;11.80;;;;;;;4.63;100.00;96562.83;108668;1273;24249;-73
2024/03/15 05:37:38;;;;;;;15.70;11.40;;;;;;;4.92;99.93;96560.48;108650;1266;22589;-73
2024/03/15 05:40:12;;;;;;;15.70;10.30;;;;;;;5.21;99.84;96561.27;108696;1273;22519;-73
2024/03/15 05:42:42;;;;;;;17.90;12.70;;;;;;;5.48;99.07;96554.89;108668;1273;22558;-73
2024/03/15 05:45:13;;;;;;;17.90;13.50;;;;;;;5.56;98.46;96550.45;108666;1271;22555;-73
2024/03/15 05:47:50;;;;;;;17.40;12.80;;;;;;;5.84;97.94;96550.38;108664;1273;24239;-73
2024/03/15 05:50:23;;;;;;;17.90;12.00;;;;;;;6.21;97.44;96548.13;108639;1273;23822;-73
2024/03/15 05:52:54;;;;;;;18.10;13.60;;;;;;;6.51;96.48;96550.46;108616;1273;22721;-73
2024/03/15 05:55:26;;;;;;;15.70;12.50;;;;;;;7.17;97.07;96547.18;108696;1273;22526;-74
2024/03/15 05:57:56;;;;;;;14.80;11.50;;;;;;;7.91;96.05;96544.79;108709;1266;22520;-73
2024/03/15 06:00:27;;;;;;;14.70;11.60;;;;;;;8.23;93.86;96540.27;108670;1273;22625;-73
2024/03/15 06:03:01;;;;;;;16.20;12.90;;;;;;;8.56;93.38;96539.85;108657;1266;24226;-73
2024/03/15 06:05:32;;;;;;;15.20;12.00;;;;;;;8.86;92.09;96540.85;108548;1266;158723;-73
2024/03/15 06:08:02;;;;;;;16.60;12.90;;;;;;;8.91;90.13;96542.58;108678;1273;22572;-73
2024/03/15 06:10:32;;;;;;;17.50;14.30;;;;;;;9.05;89.64;96544.29;108652;1273;22540;-74
2024/03/15 06:13:03;;;;;;;15.90;12.80;;;;;;;9.57;89.79;96544.34;108656;1273;23154;-73
2024/03/15 06:15:37;;;;;;;17.20;13.30;;;;;;;10.17;89.03;96548.26;108620;1273;22534;-74
2024/03/15 06:18:10;;;;;;;14.50;12.30;;;;;;;10.84;89.04;96549.23;108717;1273;22649;-74
2024/03/15 06:20:41;;;;;;;16.10;12.00;;;;;;;11.57;87.35;96549.91;108677;1273;22533;-73
2024/03/15 06:23:11;;;;;;;14.80;12.90;;;;;;;11.93;86.13;96549.36;108649;1273;22950;-73
2024/03/15 06:25:44;;;;;;;14.40;12.40;;;;;;;12.00;83.75;96550.59;108682;1266;22536;-74
2024/03/15 06:28:14;;;;;;;16.30;12.60;;;;;;;12.39;83.64;96551.95;108638;1273;25321;-74
2024/03/15 06:30:46;;;;;;;14.70;11.90;;;;;;;12.95;82.45;96554.38;108704;1272;22779;-74
2024/03/15 06:33:19;;;;;;;14.40;10.90;;;;;;;13.20;80.81;96556.77;108679;1270;22532;-74
2024/03/15 06:35:55;;;;;;;13.60;12.10;;;;;;;12.97;76.86;96559.34;108712;1266;26533;-74
2024/03/15 06:38:40;;;;;;;14.10;11.70;;;;;;;13.04;77.64;96563.02;108660;1273;22569;-74
2024/03/15 06:41:14;;;;;;;14.40;11.60;;;;;;;13.51;76.38;96559.50;108620;1273;22523;-74
2024/03/15 06:43:47;;;;;;;13.30;11.60;;;;;;;13.72;75.76;96561.73;108648;1272;24309;-74
2024/03/15 06:46:23;;;;;;;14.40;12.70;;;;;;;14.23;74.89;96560.98;108734;1270;22519;-73
2024/03/15 06:48:57;;;;;;;13.80;11.80;;;;;;;14.59;73.40;96561.57;108673;1273;22649;-74
2024/03/15 06:54:17;;;;;;;15.20;12.60;;;;;;;14.84;70.46;96561.81;108618;1273;22527;-74
2024/03/15 06:56:49;;;;;;;13.20;11.80;;;;;;;14.95;69.88;96556.77;108658;1273;22549;-74
2024/03/15 06:59:27;;;;;;;12.10;10.60;;;;;;;14.39;65.82;96553.98;108688;1273;25469;-74
2024/03/15 07:01:58;;;;;;;15.00;13.20;;;;;;;13.25;63.69;96556.91;108630;1273;25288;-74
2024/03/15 07:04:29;;;;;;;13.90;11.70;;;;;;;13.21;65.42;96563.75;108669;1273;22477;-74
2024/03/15 07:07:00;;;;;;;14.90;12.60;;;;;;;13.97;66.70;96556.77;108686;1273;22649;-74
2024/03/15 07:09:31;;;;;;;15.00;12.70;;;;;;;14.69;65.48;96557.25;108705;1269;22551;-74
2024/03/15 07:12:02;;;;;;;13.60;12.00;;;;;;;15.15;65.53;96559.43;108689;1273;22523;-74
2024/03/15 07:14:32;;;;;;;14.30;12.20;;;;;;;15.70;63.89;96560.83;108628;1273;22538;-74
2024/03/15 07:17:04;;;;;;;13.30;11.50;;;;;;;15.96;62.68;96557.30;108673;1266;22570;-74
2024/03/15 07:19:35;;;;;;;12.20;10.70;;;;;;;16.24;62.44;96558.66;108679;1273;22519;-74
2024/03/15 07:22:06;;;;;;;12.50;10.90;;;;;;;16.40;60.42;96555.86;108693;1273;24233;-74
2024/03/15 07:24:37;;;;;;;12.30;10.90;;;;;;;16.42;60.32;96557.61;108690;1250;22531;-74
2024/03/15 07:27:10;;;;;;;12.50;10.80;;;;;;;16.75;59.75;96556.08;108649;1273;22526;-74
2024/03/15 07:29:42;;;;;;;12.30;11.00;;;;;;;16.91;58.51;96557.97;108627;1272;22555;-74
2024/03/15 07:32:12;;;;;;;10.80;9.70;;;;;;;16.75;56.50;96560.05;108675;1273;22525;-74
2024/03/15 07:34:43;;;;;;;10.40;9.20;;;;;;;16.59;56.99;96557.63;108678;1273;22534;-74
2024/03/15 07:37:13;;;;;;;13.30;11.90;;;;;;;16.76;56.37;96557.81;108669;1273;22707;-74
2024/03/15 07:39:44;;;;;;;13.40;11.40;;;;;;;16.54;55.08;96554.87;108651;1273;22529;-74
2024/03/15 07:42:14;;;;;;;11.60;10.20;;;;;;;16.39;54.76;96563.98;108641;1273;24239;-74
2024/03/15 07:44:48;;;;;;;12.60;11.40;;;;;;;16.47;54.77;96559.84;108683;1273;25301;-74
2024/03/15 07:47:21;;;;;;;11.30;9.90;;;;;;;16.42;54.28;96559.39;108718;1273;25424;-74
2024/03/15 07:49:53;;;;;;;13.00;11.30;;;;;;;16.35;53.01;96557.72;108668;1273;22565;-74
2024/03/15 07:52:23;;;;;;;13.30;12.00;;;;;;;16.25;53.24;96564.70;108638;1273;24257;-74
2024/03/15 07:54:54;;;;;;;12.00;10.30;;;;;;;16.62;53.44;96563.70;108692;1270;22549;-74
2024/03/15 07:57:24;;;;;;;13.50;11.40;;;;;;;17.04;53.28;96559.80;108657;1272;22550;-74
2024/03/15 07:59:54;;;;;;;12.40;11.20;;;;;;;16.88;51.71;96556.17;108623;1273;22527;-74
2024/03/15 08:02:27;;;;;;;13.60;11.90;;;;;;;17.08;52.31;96556.52;108663;1273;23009;-74
2024/03/15 08:04:57;;;;;;;13.70;12.20;;;;;;;16.62;50.59;96558.88;108655;1273;22563;-74
2024/03/15 08:07:28;;;;;;;13.50;12.00;;;;;;;15.95;51.30;96565.42;108656;1273;24319;-74
2024/03/15 08:10:00;;;;;;;13.90;12.30;;;;;;;15.83;51.76;96564.82;108680;1273;22527;-74
2024/03/15 08:12:31;;;;;;;13.40;12.00;;;;;;;15.59;52.56;96567.55;108677;1273;22534;-74
2024/03/15 08:15:02;;;;;;;14.10;12.60;;;;;;;15.68;50.88;96559.33;108686;1273;22534;-74
2024/03/15 08:17:32;;;;;;;13.70;11.30;;;;;;;14.90;51.45;96563.52;108678;1273;22645;-74
2024/03/15 08:20:03;;;;;;;16.40;13.90;;;;;;;15.23;51.88;96562.89;108672;1273;22536;-74
2024/03/15 08:22:34;;;;;;;15.20;13.50;;;;;;;15.58;51.59;96561.04;108670;1273;22554;-74
2024/03/15 08:25:06;;;;;;;14.50;11.90;;;;;;;15.87;51.95;96560.95;108703;1270;22556;-74
2024/03/15 08:27:39;;;;;;;13.70;11.90;;;;;;;16.34;52.33;96561.62;108720;1273;24228;-74
2024/03/15 08:30:13;;;;;;;16.60;12.40;;;;;;;17.02;52.21;96554.30;108688;1273;22575;-74
2024/03/15 08:32:43;;;;;;;14.90;11.60;;;;;;;17.61;51.97;96550.98;108678;1272;23027;-74
2024/03/15 08:35:17;;;;;;;14.50;11.70;;;;;;;17.60;51.66;96551.92;108686;1273;22528;-74
2024/03/15 08:37:50;;;;;;;16.10;13.20;;;;;;;17.82;51.77;96550.25;108691;1273;22527;-74
2024/03/15 08:40:22;;;;;;;15.40;12.50;;;;;;;17.57;51.56;96549.58;108671;1273;22520;-74
2024/03/15 08:42:52;;;;;;;15.10;12.30;;;;;;;17.45;51.06;96548.07;108690;1273;22534;-74
2024/03/15 08:45:24;;;;;;;16.60;13.30;;;;;;;17.24;51.21;96547.66;108672;1270;22538;-74
2024/03/15 08:47:54;;;;;;;15.10;12.20;;;;;;;16.95;51.59;96543.97;108675;1273;22534;-73
2024/03/15 08:50:32;;;;;;;15.90;12.40;;;;;;;16.35;51.44;96547.17;108652;1273;22653;-74
2024/03/15 08:53:03;;;;;;;17.10;12.10;;;;;;;15.35;51.59;96553.67;108651;1267;25025;-74
2024/03/15 08:55:34;;;;;;;15.50;12.10;;;;;;;14.73;52.48;96549.60;108673;1273;24282;-73
2024/03/15 08:58:06;;;;;;;14.20;11.10;;;;;;;14.30;53.34;96549.34;108721;1273;25380;-74
2024/03/15 09:00:38;;;;;;;16.00;12.90;;;;;;;14.05;53.55;96549.27;108658;1273;22600;-74
2024/03/15 09:03:09;;;;;;;14.60;12.10;;;;;;;13.70;53.77;96547.86;108644;1273;22560;-74
2024/03/15 09:05:40;;;;;;;13.90;11.70;;;;;;;13.46;54.57;96550.77;108687;1273;22524;-74
2024/03/15 09:08:11;;;;;;;16.80;13.10;;;;;;;13.33;54.35;96547.73;108748;1273;22547;-73
2024/03/15 09:10:43;;;;;;;15.00;12.90;;;;;;;13.04;55.01;96543.25;108675;1270;22528;-74
2024/03/15 09:13:16;;;;;;;14.20;10.90;;;;;;;12.86;55.10;96541.98;108671;1273;23478;-74
2024/03/15 09:15:48;;;;;;;15.00;11.80;;;;;;;12.61;54.63;96540.27;108715;1273;22524;-73
2024/03/15 09:18:18;;;;;;;16.20;12.50;;;;;;;12.38;55.20;96537.23;108697;1272;23873;-74
2024/03/15 09:20:49;;;;;;;16.70;13.70;;;;;;;12.18;55.68;96540.27;108662;1272;25250;-74
2024/03/15 09:23:20;;;;;;;16.30;13.50;;;;;;;12.02;55.71;96537.91;108685;1273;22528;-74
2024/03/15 09:25:50;;;;;;;15.80;12.10;;;;;;;11.93;56.32;96539.10;108683;1273;22535;-73
2024/03/15 09:28:26;;;;;;;14.40;12.40;;;;;;;11.85;56.46;96536.99;108695;1273;22522;-73
2024/03/15 09:30:59;;;;;;;15.70;12.20;;;;;;;11.76;56.50;96540.59;108652;1272;22569;-74
2024/03/15 09:33:34;;;;;;;15.30;12.90;;;;;;;11.75;57.22;96538.70;108646;1273;35431;-73
2024/03/15 09:36:05;;;;;;;17.30;12.50;;;;;;;11.94;57.90;96536.85;108652;1273;22555;-74
2024/03/15 09:38:36;;;;;;;16.50;12.90;;;;;;;12.09;57.91;96536.20;108646;1272;23844;-74
2024/03/15 09:41:09;;;;;;;17.70;13.30;;;;;;;12.26;58.38;96529.31;108696;1251;22537;-73
2024/03/15 09:43:40;;;;;;;15.50;12.10;;;;;;;12.37;57.90;96530.34;108678;1273;22540;-74
2024/03/15 09:46:17;;;;;;;18.90;14.20;;;;;;;12.26;57.62;96529.79;108615;1273;22526;-73
2024/03/15 09:48:52;;;;;;;20.20;15.30;;;;;;;12.23;57.08;96529.77;108707;1273;22520;-73
2024/03/15 09:51:24;;;;;;;48.10;33.70;;;;;;;11.93;55.42;96533.62;108653;1273;22513;-73
2024/03/15 09:53:58;;;;;;;22.20;16.40;;;;;;;11.71;55.64;96531.16;108661;1273;22536;-73
2024/03/15 09:56:29;;;;;;;17.90;14.80;;;;;;;11.72;55.62;96532.73;108675;1267;24273;-74
2024/03/15 09:59:01;;;;;;;15.50;12.40;;;;;;;11.88;56.78;96528.16;108665;1273;22538;-73
2024/03/15 10:01:33;;;;;;;25.90;20.60;;;;;;;12.05;57.08;96527.39;108685;1273;22524;-74
2024/03/15 10:04:13;;;;;;;18.80;15.60;;;;;;;12.23;58.35;96523.02;108677;1273;22605;-73
2024/03/15 10:06:48;;;;;;;19.70;16.40;;;;;;;12.26;58.11;96518.80;108662;1272;22526;-74
2024/03/15 10:09:24;;;;;;;19.10;16.70;;;;;;;12.30;59.15;96517.43;108683;1273;22519;-73
2024/03/15 10:11:54;;;;;;;19.40;16.20;;;;;;;12.54;59.95;96520.95;108677;1273;24226;-73
2024/03/15 10:14:26;;;;;;;20.60;16.30;;;;;;;12.73;59.86;96520.36;108657;1273;24276;-73
2024/03/15 10:16:59;;;;;;;21.20;17.00;;;;;;;12.82;60.13;96517.69;108701;1273;24207;-74
2024/03/15 10:19:30;;;;;;;20.60;16.90;;;;;;;12.96;60.21;96512.22;108681;1273;22538;-74
2024/03/15 10:22:01;;;;;;;18.10;15.00;;;;;;;13.00;60.01;96510.60;108683;1273;22534;-74
2024/03/15 10:24:32;;;;;;;20.30;16.10;;;;;;;12.93;59.58;96507.70;108636;1273;22574;-74
2024/03/15 10:27:05;;;;;;;20.00;16.30;;;;;;;12.97;60.44;96508.95;108712;1257;26547;-74
2024/03/15 10:29:35;;;;;;;20.10;15.70;;;;;;;13.08;60.66;96507.56;108641;1270;22936;-74
2024/03/15 10:32:11;;;;;;;19.60;16.30;;;;;;;12.94;59.70;96505.96;108711;1273;22877;-74
2024/03/15 10:34:43;;;;;;;21.00;16.20;;;;;;;13.03;61.32;96502.19;108666;1273;22565;-74
2024/03/15 10:37:14;;;;;;;19.60;16.60;;;;;;;13.22;61.61;96499.13;108681;1273;25579;-74
2024/03/15 10:39:49;;;;;;;19.70;17.00;;;;;;;13.29;61.68;96493.77;108648;1273;22573;-74
2024/03/15 10:42:23;;;;;;;19.00;15.30;;;;;;;13.30;61.72;96497.47;108689;1273;23046;-74
2024/03/15 10:44:53;;;;;;;19.70;16.70;;;;;;;13.27;61.93;96495.46;108635;1273;24452;-74
2024/03/15 10:47:24;;;;;;;20.00;15.90;;;;;;;13.29;62.45;96497.39;108709;1273;22531;-74
2024/03/15 10:49:54;;;;;;;21.80;16.00;;;;;;;13.38;62.72;96494.11;108700;1273;22542;-74
2024/03/15 10:52:25;;;;;;;20.00;16.40;;;;;;;13.38;62.64;96497.20;108640;1273;22522;-72
2024/03/15 10:54:57;;;;;;;20.10;16.20;;;;;;;13.44;63.03;96491.21;108627;1273;23765;-74
2024/03/15 10:57:28;;;;;;;18.30;15.20;;;;;;;13.48;63.28;96491.81;108695;1271;22527;-73
2024/03/15 10:59:58;;;;;;;16.40;12.60;;;;;;;13.49;63.00;96492.02;108679;1273;24475;-74
2024/03/15 11:02:29;;;;;;;19.10;15.80;;;;;;;13.14;60.48;96492.08;108644;1273;22527;-74
2024/03/15 11:05:00;;;;;;;17.40;15.30;;;;;;;12.91;62.41;96488.42;108637;1269;26520;-75
2024/03/15 11:07:30;;;;;;;18.50;14.80;;;;;;;13.06;63.53;96486.95;108662;1273;22616;-74
2024/03/15 11:10:07;;;;;;;20.10;16.40;;;;;;;13.17;63.22;96484.62;108660;1267;24267;-74
2024/03/15 11:12:39;;;;;;;18.00;15.40;;;;;;;13.11;63.01;96483.15;108670;1273;22535;-74
2024/03/15 11:15:20;;;;;;;18.40;14.50;;;;;;;13.15;63.52;96484.81;108695;1273;22578;-74
2024/03/15 11:18:02;;;;;;;18.90;15.50;;;;;;;13.24;63.66;96485.63;108720;1272;24273;-74
2024/03/15 11:20:49;;;;;;;17.60;14.80;;;;;;;13.29;63.91;96486.21;108698;1273;23601;-74
2024/03/15 11:23:22;;;;;;;18.80;15.30;;;;;;;13.42;64.04;96488.06;108677;1273;23268;-74
2024/03/15 11:25:59;;;;;;;18.90;15.00;;;;;;;13.51;63.95;96486.11;108662;1270;22547;-74
2024/03/15 11:28:31;;;;;;;18.60;15.60;;;;;;;13.54;63.91;96486.64;108658;1267;22530;-74
2024/03/15 11:31:03;;;;;;;18.00;15.00;;;;;;;13.60;64.09;96486.88;108630;1270;22533;-74
2024/03/15 11:33:34;;;;;;;18.30;14.70;;;;;;;13.65;63.86;96485.64;108683;1273;22553;-74